Terminal Aerodrome Forecast
Issued by NWS Wilmington, OH

Current Version | Previous Version | Text Only | Print | Product List | Glossary Off
Versions: 1 2 3 4 5 6 7 8 9 10 11 12 13 14 15 16 17 18 19 20 21 22 23 24 25 26 27 28 29 30 31

000
FTUS41 KILN 282300
TAFILN
TAF
KILN 282340Z 2900/2924 14007KT P6SM OVC250
     FM291100 17010KT P6SM VCSH BKN060 OVC120
     FM291300 20013G20KT P6SM -RA SCT025 OVC040
     FM291500 21015G21KT 4SM -RA BR SCT010 OVC025
     FM291900 28019G30KT P6SM VCSH OVC025=

USA.gov is the U.S. government's official web portal to all federal, state and local government web resources and services.